Time;durP1;ratioP1;P1;durP2;ratioP2;P2;SDS_P1;SDS_P2;PMS_P1;PMS_P2;Temp;Humidity;BMP_temperature;BMP_pressure;BME280_temperature;BME280_humidity;BME280_pressure;Samples;Min_cycle;Max_cycle;Signal;HPM_P1;HPM_P2
2023/10/28 00:00:17;;;;;;;23.70;12.50;;;;;;;9.87;84.74;97139.15;105576;1254;97722;-75
2023/10/28 00:03:05;;;;;;;23.80;11.40;;;;;;;9.89;84.77;97140.92;105401;1256;109734;-75
2023/10/28 00:05:33;;;;;;;22.10;11.30;;;;;;;9.92;84.80;97144.56;105638;1267;97525;-75
2023/10/28 00:08:10;;;;;;;21.90;10.90;;;;;;;9.95;84.77;97149.94;105741;1255;96691;-76
2023/10/28 00:10:41;;;;;;;22.30;11.50;;;;;;;9.94;84.67;97151.77;106346;1253;110471;-75
2023/10/28 00:13:09;;;;;;;22.00;11.50;;;;;;;9.94;84.70;97152.89;107993;1252;96568;-76
2023/10/28 00:15:36;;;;;;;20.70;10.80;;;;;;;9.95;84.75;97154.88;105350;1256;107671;-74
2023/10/28 00:18:05;;;;;;;23.00;11.90;;;;;;;9.95;84.68;97155.73;105603;1254;96502;-75
2023/10/28 00:20:34;;;;;;;20.70;11.20;;;;;;;9.94;84.66;97159.52;105758;1256;96580;-76
2023/10/28 00:23:06;;;;;;;22.70;11.40;;;;;;;9.95;84.78;97168.63;105671;1255;109982;-75
2023/10/28 00:25:35;;;;;;;21.90;11.60;;;;;;;9.94;84.64;97173.93;105723;1255;96502;-75
2023/10/28 00:28:03;;;;;;;19.80;10.50;;;;;;;9.92;84.66;97176.00;105626;1254;107484;-75
2023/10/28 00:30:31;;;;;;;19.80;10.00;;;;;;;9.93;84.61;97177.67;105701;1256;97074;-75
2023/10/28 00:33:00;;;;;;;20.90;11.60;;;;;;;9.92;84.59;97183.67;105762;1251;96553;-76
2023/10/28 00:35:28;;;;;;;21.60;11.10;;;;;;;9.93;84.68;97189.09;105406;1257;109593;-75
2023/10/28 00:37:57;;;;;;;25.70;11.30;;;;;;;9.93;84.69;97189.20;105957;1251;96468;-75
2023/10/28 00:40:30;;;;;;;20.00;10.10;;;;;;;9.93;84.58;97191.48;108590;1251;107572;-76
2023/10/28 00:42:59;;;;;;;20.10;10.90;;;;;;;9.91;84.60;97195.13;106006;1256;97829;-75
2023/10/28 00:45:27;;;;;;;21.40;10.80;;;;;;;9.90;84.61;97197.73;105678;1256;96670;-77
2023/10/28 00:47:56;;;;;;;21.00;10.90;;;;;;;9.89;84.68;97196.69;105807;1256;109831;-75
2023/10/28 00:50:25;;;;;;;19.20;10.10;;;;;;;9.88;84.50;97197.38;105939;1252;96668;-76
2023/10/28 00:52:54;;;;;;;19.80;10.20;;;;;;;9.84;84.59;97198.81;105431;1251;107730;-76
2023/10/28 00:55:23;;;;;;;20.50;10.70;;;;;;;9.80;84.48;97196.55;105591;1252;96687;-75
2023/10/28 00:57:52;;;;;;;19.60;10.50;;;;;;;9.78;84.56;97192.95;105375;1257;96586;-79
2023/10/28 01:00:23;;;;;;;21.00;11.10;;;;;;;9.76;84.55;97198.38;105530;1255;109646;-75
2023/10/28 01:02:52;;;;;;;21.50;11.70;;;;;;;9.73;84.59;97196.52;105467;1253;97384;-74
2023/10/28 01:05:22;;;;;;;22.00;11.40;;;;;;;9.71;84.61;97196.33;106400;1254;107356;-75
2023/10/28 01:07:50;;;;;;;21.60;11.60;;;;;;;9.69;84.62;97196.02;105562;1255;97811;-75
2023/10/28 01:10:29;;;;;;;21.70;12.40;;;;;;;9.68;84.65;97199.46;105525;1251;97777;-75
2023/10/28 01:13:00;;;;;;;21.90;12.00;;;;;;;9.68;84.66;97203.13;105428;1255;110392;-76
2023/10/28 01:15:28;;;;;;;23.30;13.50;;;;;;;9.68;84.54;97206.37;105474;1257;97924;-76
2023/10/28 01:17:59;;;;;;;23.10;13.10;;;;;;;9.67;84.61;97216.58;105491;1256;107220;-76
2023/10/28 01:20:28;;;;;;;23.20;13.10;;;;;;;9.65;84.66;97221.52;105264;1252;96572;-75
2023/10/28 01:22:57;;;;;;;22.80;12.30;;;;;;;9.64;84.61;97226.07;105304;1256;97362;-75
2023/10/28 01:25:25;;;;;;;22.60;11.90;;;;;;;9.65;84.65;97226.98;105479;1254;108926;-75
2023/10/28 01:27:53;;;;;;;20.60;11.20;;;;;;;9.66;84.71;97227.39;105615;1251;96621;-75
2023/10/28 01:30:21;;;;;;;23.40;12.70;;;;;;;9.66;84.67;97232.40;105159;1257;108322;-76
2023/10/28 01:32:49;;;;;;;20.90;11.40;;;;;;;9.66;84.60;97233.68;105326;1251;96742;-76
2023/10/28 01:35:18;;;;;;;22.20;12.00;;;;;;;9.65;84.69;97236.44;105514;1256;96666;-75
2023/10/28 01:37:46;;;;;;;22.30;11.70;;;;;;;9.65;84.63;97236.54;105484;1262;109925;-75
2023/10/28 01:40:14;;;;;;;20.10;10.80;;;;;;;9.65;84.56;97237.44;105284;1268;96599;-75
2023/10/28 01:42:45;;;;;;;21.00;11.10;;;;;;;9.65;84.64;97243.83;105657;1256;107273;-75
2023/10/28 01:45:15;;;;;;;22.80;12.00;;;;;;;9.65;84.64;97243.16;105272;1258;97539;-75
2023/10/28 01:47:44;;;;;;;22.40;11.00;;;;;;;9.65;84.74;97246.43;105414;1256;96627;-75
2023/10/28 01:50:12;;;;;;;21.00;10.80;;;;;;;9.65;84.67;97252.33;105304;1251;110040;-77
2023/10/28 01:52:42;;;;;;;21.70;11.20;;;;;;;9.65;84.71;97259.55;105370;1256;96652;-75
2023/10/28 01:55:11;;;;;;;20.70;10.90;;;;;;;9.65;84.69;97260.97;105509;1253;107694;-75
2023/10/28 01:57:40;;;;;;;29.00;10.90;;;;;;;9.66;84.64;97263.02;105631;1251;97891;-76
2023/10/28 02:00:12;;;;;;;19.40;10.10;;;;;;;9.66;84.64;97268.72;105570;1254;96583;-75
2023/10/28 02:02:41;;;;;;;17.10;8.70;;;;;;;9.67;84.60;97270.30;105511;1253;109883;-76
2023/10/28 02:05:11;;;;;;;16.90;8.60;;;;;;;9.68;84.68;97269.36;105412;1256;96590;-76
2023/10/28 02:07:40;;;;;;;15.20;7.40;;;;;;;9.67;84.57;97273.70;105452;1251;108108;-75
2023/10/28 02:10:10;;;;;;;18.20;8.00;;;;;;;9.68;84.66;97275.19;105382;1257;96558;-75
2023/10/28 02:12:38;;;;;;;16.80;7.90;;;;;;;9.70;84.78;97281.59;105667;1251;96587;-75
2023/10/28 02:15:09;;;;;;;16.10;7.70;;;;;;;9.70;84.66;97286.40;105628;1251;109341;-74
2023/10/28 02:17:38;;;;;;;18.10;9.00;;;;;;;9.67;84.58;97290.88;105424;1257;96712;-75
2023/10/28 02:20:06;;;;;;;21.10;8.20;;;;;;;9.64;84.65;97293.33;105739;1256;107364;-75
2023/10/28 02:22:36;;;;;;;17.70;8.40;;;;;;;9.63;84.63;97295.90;105736;1251;96798;-75
2023/10/28 02:25:04;;;;;;;18.10;8.50;;;;;;;9.65;84.71;97298.00;105621;1253;96961;-76
2023/10/28 02:27:33;;;;;;;19.90;8.60;;;;;;;9.66;84.70;97302.31;105324;1264;110397;-76
2023/10/28 02:30:01;;;;;;;17.20;8.60;;;;;;;9.67;84.62;97307.30;105529;1253;96594;-75
2023/10/28 02:32:29;;;;;;;17.90;8.50;;;;;;;9.66;84.68;97308.88;105590;1251;107924;-75
2023/10/28 02:34:59;;;;;;;19.60;8.50;;;;;;;9.65;84.73;97314.11;105640;1257;97778;-76
2023/10/28 02:37:27;;;;;;;16.80;8.10;;;;;;;9.65;84.68;97317.81;105615;1255;96572;-76
2023/10/28 02:39:56;;;;;;;17.20;8.00;;;;;;;9.63;84.63;97315.13;105495;1252;110057;-75
2023/10/28 02:42:24;;;;;;;16.80;8.00;;;;;;;9.63;84.61;97323.84;105469;1256;96592;-75
2023/10/28 02:44:52;;;;;;;17.20;8.40;;;;;;;9.63;84.66;97328.63;105538;1253;107544;-75
2023/10/28 02:47:20;;;;;;;17.10;8.50;;;;;;;9.63;84.74;97332.31;105365;1255;96691;-76
2023/10/28 02:49:48;;;;;;;15.50;7.30;;;;;;;9.61;84.72;97329.30;105424;1252;96703;-75
2023/10/28 02:52:16;;;;;;;15.00;7.30;;;;;;;9.60;84.63;97334.52;105527;1257;109903;-74
2023/10/28 02:54:44;;;;;;;14.80;6.70;;;;;;;9.62;84.70;97339.48;105588;1254;96584;-75
2023/10/28 02:57:12;;;;;;;12.20;6.30;;;;;;;9.64;84.74;97340.21;105451;1257;107154;-77
2023/10/28 02:59:41;;;;;;;12.40;5.80;;;;;;;9.65;84.70;97341.37;105525;1253;97838;-74
2023/10/28 03:02:09;;;;;;;14.10;6.00;;;;;;;9.64;84.71;97349.52;105740;1254;96687;-74
2023/10/28 03:04:37;;;;;;;12.00;5.60;;;;;;;9.65;84.70;97348.06;105435;1256;110162;-74
2023/10/28 03:07:05;;;;;;;15.30;6.40;;;;;;;9.65;84.62;97348.27;105362;1255;96531;-75
2023/10/28 03:09:33;;;;;;;14.40;7.30;;;;;;;9.65;84.71;97349.80;105531;1253;107588;-77
2023/10/28 03:12:01;;;;;;;15.90;7.80;;;;;;;9.66;84.71;97349.92;105298;1256;96594;-75
2023/10/28 03:14:29;;;;;;;18.00;8.10;;;;;;;9.66;84.66;97348.45;105519;1255;97807;-74
2023/10/28 03:16:57;;;;;;;19.30;8.80;;;;;;;9.67;84.78;97351.07;105267;1275;108656;-77
2023/10/28 03:19:25;;;;;;;19.60;10.10;;;;;;;9.68;84.84;97356.79;105397;1254;96606;-74
2023/10/28 03:21:53;;;;;;;20.80;10.20;;;;;;;9.66;84.74;97358.73;105566;1255;107603;-75
2023/10/28 03:24:21;;;;;;;21.60;10.50;;;;;;;9.66;84.83;97365.13;105174;1260;96685;-76
2023/10/28 03:26:49;;;;;;;21.30;9.40;;;;;;;9.68;84.74;97367.78;105409;1255;96586;-75
2023/10/28 03:29:17;;;;;;;18.70;9.10;;;;;;;9.72;84.77;97370.41;105536;1254;110012;-75
2023/10/28 03:31:45;;;;;;;17.70;8.80;;;;;;;9.75;84.82;97370.98;105323;1267;96595;-75
2023/10/28 03:34:13;;;;;;;17.30;8.50;;;;;;;9.79;84.85;97376.83;105453;1253;107351;-76
2023/10/28 03:36:41;;;;;;;18.10;8.40;;;;;;;9.80;84.76;97379.52;105357;1255;96702;-75
2023/10/28 03:39:10;;;;;;;19.40;9.20;;;;;;;9.81;84.77;97382.06;105441;1251;96630;-75
2023/10/28 03:41:38;;;;;;;17.20;9.00;;;;;;;9.84;84.79;97390.85;105534;1256;109520;-75
2023/10/28 03:44:07;;;;;;;17.00;8.30;;;;;;;9.87;84.79;97393.45;105468;1256;96616;-75
2023/10/28 03:46:35;;;;;;;19.30;8.90;;;;;;;9.90;84.82;97394.41;105633;1256;107613;-76
2023/10/28 03:49:03;;;;;;;18.00;8.80;;;;;;;9.91;84.80;97391.94;105596;1256;96646;-76
2023/10/28 03:51:31;;;;;;;17.90;8.50;;;;;;;9.93;84.78;97393.39;105566;1251;96579;-75
2023/10/28 03:54:00;;;;;;;19.60;8.90;;;;;;;9.94;84.87;97396.06;105283;1256;109997;-75
2023/10/28 03:56:29;;;;;;;20.50;9.20;;;;;;;9.96;84.79;97399.27;105497;1255;96510;-75
2023/10/28 03:58:57;;;;;;;17.10;8.50;;;;;;;9.98;84.88;97399.66;105312;1256;108398;-74
2023/10/28 04:01:25;;;;;;;17.50;8.70;;;;;;;9.99;84.80;97408.02;105290;1257;97034;-75
2023/10/28 04:03:53;;;;;;;15.80;8.70;;;;;;;10.01;84.84;97407.28;105424;1256;97675;-75
2023/10/28 04:06:23;;;;;;;17.80;8.40;;;;;;;10.02;84.92;97414.80;105607;1251;110428;-75
2023/10/28 04:08:51;;;;;;;20.10;9.20;;;;;;;10.03;84.86;97419.19;105513;1255;97512;-75
2023/10/28 04:11:19;;;;;;;18.70;8.70;;;;;;;10.04;84.83;97423.15;105902;1251;106803;-75
2023/10/28 04:13:49;;;;;;;19.70;8.50;;;;;;;10.05;84.89;97426.09;105391;1257;96724;-76
2023/10/28 04:16:17;;;;;;;19.90;7.90;;;;;;;10.06;84.88;97427.92;105431;1255;96604;-75
2023/10/28 04:18:44;;;;;;;16.50;7.20;;;;;;;10.06;84.81;97429.29;105792;1254;109747;-75
2023/10/28 04:21:12;;;;;;;18.60;7.60;;;;;;;10.06;84.91;97425.60;105603;1253;96645;-77
2023/10/28 04:23:41;;;;;;;17.60;8.00;;;;;;;10.06;84.79;97429.52;105528;1257;107641;-75
2023/10/28 04:26:09;;;;;;;15.40;8.30;;;;;;;10.06;84.74;97428.76;105913;1256;97908;-75
2023/10/28 04:28:38;;;;;;;17.00;8.20;;;;;;;10.07;84.73;97429.20;105501;1251;96572;-75
2023/10/28 04:31:06;;;;;;;14.20;6.90;;;;;;;10.08;84.73;97431.94;105547;1256;109971;-75
2023/10/28 04:33:34;;;;;;;17.20;7.60;;;;;;;10.08;84.78;97434.96;105686;1253;96606;-76
2023/10/28 04:36:02;;;;;;;16.60;7.20;;;;;;;10.08;84.71;97438.15;105571;1257;106743;-75
2023/10/28 04:38:30;;;;;;;14.80;7.50;;;;;;;10.09;84.75;97440.55;105447;1253;96603;-76
2023/10/28 04:40:58;;;;;;;15.90;7.20;;;;;;;10.08;84.69;97437.58;105669;1254;96504;-75
2023/10/28 04:43:26;;;;;;;13.70;6.30;;;;;;;10.07;84.75;97437.18;105486;1258;109987;-75
2023/10/28 04:45:54;;;;;;;13.40;6.50;;;;;;;10.08;84.74;97439.98;105552;1251;96598;-76
2023/10/28 04:48:28;;;;;;;12.40;6.30;;;;;;;10.09;84.65;97442.32;105457;1257;107600;-75
2023/10/28 04:50:56;;;;;;;11.70;5.70;;;;;;;10.09;84.62;97444.77;105646;1253;96960;-76
2023/10/28 04:53:24;;;;;;;12.60;5.80;;;;;;;10.09;84.62;97449.69;105586;1254;96559;-75
2023/10/28 04:55:52;;;;;;;13.90;6.40;;;;;;;10.11;84.70;97450.08;105299;1255;109102;-74
2023/10/28 04:58:21;;;;;;;13.90;6.40;;;;;;;10.12;84.60;97452.30;105294;1258;97509;-77
2023/10/28 05:00:49;;;;;;;15.70;5.90;;;;;;;10.12;84.65;97453.12;105380;1257;108058;-76
2023/10/28 05:03:17;;;;;;;13.40;6.40;;;;;;;10.12;84.64;97452.84;105347;1251;96605;-75
2023/10/28 05:05:47;;;;;;;14.20;5.70;;;;;;;10.12;84.66;97458.67;105535;1253;97816;-73
2023/10/28 05:08:16;;;;;;;10.20;4.80;;;;;;;10.11;84.68;97460.30;105498;1269;108918;-75
2023/10/28 05:10:44;;;;;;;12.00;5.10;;;;;;;10.12;84.58;97461.17;105446;1255;96596;-76
2023/10/28 05:13:12;;;;;;;14.70;6.30;;;;;;;10.11;84.59;97471.09;105495;1258;107629;-78
2023/10/28 05:15:40;;;;;;;20.00;6.50;;;;;;;10.11;84.66;97476.08;105268;1255;97913;-75
2023/10/28 05:18:08;;;;;;;12.20;5.40;;;;;;;10.12;84.57;97476.33;105624;1253;96742;-75
2023/10/28 05:20:36;;;;;;;9.00;4.70;;;;;;;10.12;84.58;97483.10;105434;1252;109939;-75
2023/10/28 05:23:04;;;;;;;9.70;4.90;;;;;;;10.12;84.62;97485.55;105539;1257;96572;-75
2023/10/28 05:25:32;;;;;;;9.10;4.90;;;;;;;10.14;84.73;97490.20;105535;1264;108048;-77
2023/10/28 05:28:01;;;;;;;9.80;4.90;;;;;;;10.15;84.63;97496.30;105569;1256;96634;-75
2023/10/28 05:30:29;;;;;;;10.60;5.50;;;;;;;10.16;84.59;97497.77;105422;1257;96646;-75
2023/10/28 05:32:57;;;;;;;14.60;7.50;;;;;;;10.18;84.58;97504.67;105365;1253;109809;-75
2023/10/28 05:35:25;;;;;;;12.60;6.00;;;;;;;10.19;84.56;97512.23;105405;1254;96569;-75
2023/10/28 05:37:52;;;;;;;12.10;6.60;;;;;;;10.18;84.50;97518.86;105552;1253;105592;-75
2023/10/28 05:40:20;;;;;;;12.10;5.90;;;;;;;10.18;84.57;97519.40;105823;1256;96686;-76
2023/10/28 05:42:49;;;;;;;14.80;7.70;;;;;;;10.20;84.69;97525.09;105678;1255;97489;-76
2023/10/28 05:45:18;;;;;;;19.10;9.00;;;;;;;10.20;84.53;97527.85;105503;1252;109767;-75
2023/10/28 05:47:46;;;;;;;20.90;9.60;;;;;;;10.20;84.53;97534.03;105789;1251;96659;-75
2023/10/28 05:50:14;;;;;;;17.70;8.90;;;;;;;10.20;84.58;97535.66;105654;1257;107659;-76
2023/10/28 05:52:42;;;;;;;23.30;12.30;;;;;;;10.21;84.63;97533.94;105457;1256;96668;-75
2023/10/28 05:55:13;;;;;;;25.80;14.50;;;;;;;10.23;84.49;97535.23;105653;1254;96533;-76
2023/10/28 05:57:41;;;;;;;29.40;18.00;;;;;;;10.24;84.59;97544.00;105380;1251;110505;-75
2023/10/28 06:00:10;;;;;;;35.90;20.70;;;;;;;10.25;84.62;97547.91;105558;1253;97525;-76
2023/10/28 06:02:38;;;;;;;29.60;18.50;;;;;;;10.29;84.70;97546.48;105055;1259;106520;-70
2023/10/28 06:05:07;;;;;;;27.40;16.70;;;;;;;10.34;84.64;97550.48;105392;1255;96628;-70
2023/10/28 06:07:35;;;;;;;23.10;13.10;;;;;;;10.37;84.69;97548.37;105653;1255;96530;-70
2023/10/28 06:10:07;;;;;;;24.30;13.10;;;;;;;10.41;84.62;97554.08;105420;1251;109977;-70
2023/10/28 06:12:35;;;;;;;21.40;12.00;;;;;;;10.43;84.56;97556.20;105547;1253;96579;-69
2023/10/28 06:15:03;;;;;;;15.90;9.00;;;;;;;10.45;84.60;97560.73;105194;1252;107835;-70
2023/10/28 06:17:31;;;;;;;17.40;9.40;;;;;;;10.48;84.56;97560.12;105270;1258;97815;-70
2023/10/28 06:19:59;;;;;;;20.90;10.30;;;;;;;10.50;84.49;97568.42;105578;1253;96858;-71
2023/10/28 06:22:27;;;;;;;22.10;12.90;;;;;;;10.53;84.57;97572.46;105393;1256;109463;-70
2023/10/28 06:24:55;;;;;;;20.80;8.90;;;;;;;10.56;84.66;97579.41;105701;1253;96738;-69
2023/10/28 06:27:23;;;;;;;17.20;7.40;;;;;;;10.60;84.62;97584.00;105620;1253;107075;-70
2023/10/28 06:29:52;;;;;;;11.80;4.50;;;;;;;10.64;84.66;97587.14;105495;1254;96684;-70
2023/10/28 06:32:20;;;;;;;11.00;5.40;;;;;;;10.67;84.67;97586.99;105728;1254;96557;-72
2023/10/28 06:34:49;;;;;;;12.90;5.70;;;;;;;10.72;84.73;97587.64;105382;1256;110004;-74
2023/10/28 06:37:17;;;;;;;11.10;5.80;;;;;;;10.74;84.63;97591.36;105563;1256;96587;-72
2023/10/28 06:39:47;;;;;;;14.00;5.70;;;;;;;10.76;84.71;97599.13;105785;1255;107671;-70
2023/10/28 06:42:18;;;;;;;10.40;5.20;;;;;;;10.78;84.64;97597.15;105481;1255;97546;-72
2023/10/28 06:44:45;;;;;;;10.10;5.30;;;;;;;10.81;84.69;97597.38;105389;1254;96686;-70
2023/10/28 06:47:14;;;;;;;8.70;4.80;;;;;;;10.87;84.79;97600.17;105436;1256;110076;-72
2023/10/28 06:49:42;;;;;;;9.30;5.20;;;;;;;10.93;84.67;97602.77;105694;1256;96605;-70
2023/10/28 06:52:10;;;;;;;8.50;4.60;;;;;;;10.99;84.75;97602.95;105476;1256;107583;-71
2023/10/28 06:54:38;;;;;;;10.60;5.30;;;;;;;11.04;84.81;97605.46;105559;1255;96597;-71
2023/10/28 06:57:06;;;;;;;15.90;9.20;;;;;;;11.09;84.79;97609.44;108617;1251;94347;-73
2023/10/28 06:59:34;;;;;;;9.30;4.60;;;;;;;11.13;84.72;97612.63;107319;1257;109720;-73
2023/10/28 07:02:02;;;;;;;9.60;4.00;;;;;;;11.17;84.62;97616.95;106678;1253;94993;-71
2023/10/28 07:04:31;;;;;;;6.40;3.00;;;;;;;11.23;84.66;97623.14;105469;1251;107148;-71
2023/10/28 07:07:00;;;;;;;7.40;4.00;;;;;;;11.26;84.48;97621.95;108774;1250;94291;-73
2023/10/28 07:09:29;;;;;;;6.00;3.60;;;;;;;11.28;84.41;97627.72;108771;1253;94323;-72
2023/10/28 07:11:56;;;;;;;7.20;3.40;;;;;;;11.30;84.43;97629.67;108764;1251;108888;-72
2023/10/28 07:14:24;;;;;;;6.30;3.10;;;;;;;11.34;84.45;97634.67;108766;1251;95510;-72
2023/10/28 07:16:52;;;;;;;6.30;3.60;;;;;;;11.37;84.42;97636.89;105760;1265;107358;-71
2023/10/28 07:19:21;;;;;;;10.40;3.70;;;;;;;11.40;84.36;97637.45;105412;1253;97545;-71
2023/10/28 07:21:48;;;;;;;8.40;3.50;;;;;;;11.43;84.42;97636.47;105432;1256;96582;-72
2023/10/28 07:24:16;;;;;;;6.20;3.20;;;;;;;11.46;84.30;97633.47;105587;1254;109563;-71
2023/10/28 07:26:45;;;;;;;9.00;3.00;;;;;;;11.49;84.26;97637.46;105569;1255;96591;-73
2023/10/28 07:29:13;;;;;;;5.90;2.80;;;;;;;11.51;84.26;97644.04;105525;1259;107637;-71
2023/10/28 07:31:41;;;;;;;6.50;3.00;;;;;;;11.52;84.28;97648.57;105636;1256;96637;-71
2023/10/28 07:34:09;;;;;;;6.90;2.90;;;;;;;11.55;84.43;97652.80;105573;1254;96670;-73
2023/10/28 07:36:37;;;;;;;5.10;2.80;;;;;;;11.60;84.48;97653.34;105344;1254;109926;-73
2023/10/28 07:39:05;;;;;;;8.70;5.00;;;;;;;11.66;84.34;97661.88;105542;1251;96563;-72
2023/10/28 07:41:33;;;;;;;7.70;3.70;;;;;;;11.69;84.33;97667.77;105282;1252;107087;-77
2023/10/28 07:44:01;;;;;;;7.80;4.30;;;;;;;11.72;84.29;97670.46;105385;1259;96597;-70
2023/10/28 07:46:30;;;;;;;10.70;4.70;;;;;;;11.74;84.32;97673.98;105583;1264;96605;-72
2023/10/28 07:48:58;;;;;;;5.30;3.40;;;;;;;11.76;84.22;97675.64;105536;1256;110799;-72
2023/10/28 07:51:26;;;;;;;4.20;2.50;;;;;;;11.77;84.22;97676.39;105582;1256;96624;-71
2023/10/28 07:53:54;;;;;;;9.40;2.60;;;;;;;11.79;83.94;97679.08;105402;1253;108270;-71
2023/10/28 07:56:22;;;;;;;6.70;2.30;;;;;;;11.80;84.14;97684.67;105642;1254;97506;-72
2023/10/28 07:58:52;;;;;;;3.50;2.10;;;;;;;11.81;84.02;97688.43;105412;1256;96569;-70
2023/10/28 08:01:20;;;;;;;5.70;2.10;;;;;;;11.84;84.07;97692.23;105589;1252;109889;-71
2023/10/28 08:03:51;;;;;;;5.60;2.10;;;;;;;11.86;84.08;97691.98;105459;1264;97002;-72
2023/10/28 08:06:22;;;;;;;5.00;2.20;;;;;;;11.88;84.09;97689.46;105654;1256;107355;-71
2023/10/28 08:09:05;;;;;;;6.20;2.10;;;;;;;11.94;83.95;97691.98;105640;1256;96597;-70
2023/10/28 08:11:33;;;;;;;3.30;2.00;;;;;;;11.98;83.97;97702.27;105648;1256;96609;-73
2023/10/28 08:14:03;;;;;;;6.80;2.90;;;;;;;12.01;83.81;97703.03;105178;1269;110081;-70
2023/10/28 08:16:34;;;;;;;8.40;3.00;;;;;;;12.03;83.82;97709.94;105753;1265;98008;-70
2023/10/28 08:19:03;;;;;;;6.10;2.60;;;;;;;12.05;83.78;97712.19;105437;1256;106647;-72
2023/10/28 08:21:32;;;;;;;5.10;2.30;;;;;;;12.09;83.82;97720.70;105339;1255;96595;-70
2023/10/28 08:24:00;;;;;;;5.60;2.00;;;;;;;12.16;83.73;97722.13;105579;1254;96603;-72
2023/10/28 08:26:28;;;;;;;4.10;1.90;;;;;;;12.25;83.51;97730.44;105263;1256;108507;-71
2023/10/28 08:28:56;;;;;;;5.40;2.90;;;;;;;12.33;83.62;97732.65;105355;1256;96545;-71
2023/10/28 08:31:24;;;;;;;4.40;2.30;;;;;;;12.40;83.53;97740.88;105364;1256;108408;-71
2023/10/28 08:33:53;;;;;;;4.40;2.20;;;;;;;12.43;83.60;97744.69;105625;1257;97941;-69
2023/10/28 08:36:20;;;;;;;3.60;2.40;;;;;;;12.42;83.42;97748.90;105676;1258;97922;-70
2023/10/28 08:38:48;;;;;;;4.30;2.00;;;;;;;12.42;83.24;97750.98;105591;1256;108679;-72
2023/10/28 08:41:21;;;;;;;4.00;2.10;;;;;;;12.44;83.38;97758.29;107931;1255;96645;-71
2023/10/28 08:43:51;;;;;;;3.70;1.60;;;;;;;12.48;83.29;97762.13;105951;1255;107713;-71
2023/10/28 08:46:19;;;;;;;4.30;1.50;;;;;;;12.56;83.14;97766.81;105671;1256;96743;-71
2023/10/28 08:48:48;;;;;;;5.80;1.90;;;;;;;12.68;83.37;97773.05;105724;1256;96590;-70
2023/10/28 08:51:21;;;;;;;3.40;1.50;;;;;;;12.80;83.36;97774.01;105519;1264;109439;-70
2023/10/28 08:53:51;;;;;;;2.00;1.50;;;;;;;12.90;83.48;97779.14;105547;1255;96680;-71
2023/10/28 08:56:23;;;;;;;4.80;1.70;;;;;;;12.98;83.15;97785.17;105345;1254;107603;-72
2023/10/28 08:58:55;;;;;;;5.00;1.50;;;;;;;13.04;82.03;97783.30;105402;1266;98046;-72
2023/10/28 09:01:24;;;;;;;3.70;1.20;;;;;;;13.08;82.43;97784.13;105329;1256;97351;-71
2023/10/28 09:04:00;;;;;;;2.40;1.50;;;;;;;13.15;82.81;97782.36;105325;1264;109365;-72
2023/10/28 09:06:28;;;;;;;6.50;1.70;;;;;;;13.21;81.82;97787.27;105487;1256;96588;-73
2023/10/28 09:08:57;;;;;;;4.50;1.60;;;;;;;13.24;82.04;97783.89;105627;1264;107774;-71
2023/10/28 09:11:25;;;;;;;3.40;1.70;;;;;;;13.28;81.65;97790.32;105921;1254;96654;-71
2023/10/28 09:13:53;;;;;;;6.20;2.10;;;;;;;13.30;81.66;97792.00;105381;1259;97412;-71
2023/10/28 09:16:22;;;;;;;2.90;1.60;;;;;;;13.32;81.90;97786.10;105396;1256;109454;-72
2023/10/28 09:18:55;;;;;;;4.40;1.50;;;;;;;13.33;81.40;97792.05;105617;1259;97530;-69
2023/10/28 09:21:23;;;;;;;2.20;1.20;;;;;;;13.31;81.86;97793.88;105417;1257;107073;-71
2023/10/28 09:24:00;;;;;;;1.90;1.50;;;;;;;13.29;80.43;97802.77;105544;1256;97800;-72
2023/10/28 09:26:29;;;;;;;4.50;1.40;;;;;;;13.26;80.49;97804.00;105652;1256;96589;-78
2023/10/28 09:28:58;;;;;;;3.30;1.60;;;;;;;13.24;81.26;97806.34;105555;1267;109377;-73
2023/10/28 09:31:28;;;;;;;4.40;1.70;;;;;;;13.24;81.16;97802.16;105570;1266;97936;-72
2023/10/28 09:33:57;;;;;;;4.40;1.60;;;;;;;13.24;81.09;97799.39;105640;1256;107702;-70
2023/10/28 09:36:28;;;;;;;2.30;1.40;;;;;;;13.26;80.97;97802.36;105470;1268;96690;-74
2023/10/28 09:38:56;;;;;;;2.90;1.60;;;;;;;13.29;81.54;97796.70;105496;1257;96578;-74
2023/10/28 09:41:24;;;;;;;3.40;1.60;;;;;;;13.34;81.33;97796.75;105431;1256;109406;-74
2023/10/28 09:43:55;;;;;;;3.40;1.90;;;;;;;13.35;80.09;97795.80;105609;1264;96511;-71
2023/10/28 09:46:26;;;;;;;5.60;2.00;;;;;;;13.34;80.77;97797.45;106915;1255;108434;-72
2023/10/28 09:48:59;;;;;;;4.70;1.80;;;;;;;13.38;80.81;97797.23;105723;1256;96609;-71
2023/10/28 09:51:30;;;;;;;3.20;1.90;;;;;;;13.43;80.72;97798.89;105550;1258;96655;-70
2023/10/28 09:54:02;;;;;;;6.50;1.70;;;;;;;13.49;80.83;97794.48;105468;1257;109849;-72
2023/10/28 09:56:37;;;;;;;3.90;1.60;;;;;;;13.58;79.04;97802.02;105313;1266;96553;-71
2023/10/28 09:59:13;;;;;;;3.10;1.40;;;;;;;13.64;80.28;97800.91;105599;1256;108435;-69
2023/10/28 10:04:06;;;;;;;3.50;1.90;;;;;;;13.76;80.60;97798.63;102165;1285;636015;-71
2023/10/28 10:06:35;;;;;;;2.90;1.70;;;;;;;13.78;80.44;97798.48;104531;1267;95410;-73
2023/10/28 10:09:07;;;;;;;5.10;1.70;;;;;;;13.80;80.36;97805.69;104569;1267;94381;-71
2023/10/28 10:11:42;;;;;;;14.80;2.90;;;;;;;13.81;80.36;97804.21;104596;1266;106921;-69
2023/10/28 10:14:12;;;;;;;3.60;1.90;;;;;;;13.84;79.62;97809.71;104633;1266;95573;-70
2023/10/28 10:16:46;;;;;;;4.50;1.80;;;;;;;13.89;80.08;97811.05;104720;1264;213922;-70
2023/10/28 10:19:25;;;;;;;4.60;1.70;;;;;;;13.91;80.13;97808.64;104868;1261;94288;-72
2023/10/28 10:21:53;;;;;;;2.50;1.20;;;;;;;13.93;80.16;97811.09;105277;1259;94768;-73
2023/10/28 10:24:29;;;;;;;4.60;1.70;;;;;;;13.94;80.18;97820.08;105357;1255;106980;-77
2023/10/28 10:27:04;;;;;;;4.70;1.60;;;;;;;13.93;79.95;97818.20;105100;1256;96631;-74
2023/10/28 10:29:42;;;;;;;6.00;1.90;;;;;;;13.92;79.73;97822.79;105025;1261;106671;-76
2023/10/28 10:32:17;;;;;;;17.40;6.10;;;;;;;13.87;79.76;97823.70;105370;1259;95347;-74
2023/10/28 10:34:45;;;;;;;18.00;6.50;;;;;;;13.83;79.87;97823.03;105126;1274;95324;-77
2023/10/28 10:38:13;;;;;;;15.00;3.50;;;;;;;13.77;79.95;97822.29;105434;1256;107620;-84
2023/10/28 10:40:55;;;;;;;3.40;2.00;;;;;;;13.66;79.70;97822.61;105175;1263;96780;-79
2023/10/28 10:43:29;;;;;;;5.70;2.20;;;;;;;13.61;79.70;97822.81;104779;1266;107850;-81
2023/10/28 10:46:05;;;;;;;4.10;1.60;;;;;;;13.58;79.82;97824.53;105172;1258;95149;-79
2023/10/28 10:48:36;;;;;;;2.10;1.50;;;;;;;13.58;79.75;97825.80;105155;1261;95344;-78
2023/10/28 10:51:05;;;;;;;3.90;1.80;;;;;;;13.58;79.55;97824.80;105425;1253;106425;-81
2023/10/28 10:53:43;;;;;;;6.00;1.60;;;;;;;13.60;79.62;97823.30;105429;1258;96180;-79
2023/10/28 10:56:20;;;;;;;4.00;1.60;;;;;;;13.62;79.67;97824.11;105405;1259;107585;-76
2023/10/28 10:58:55;;;;;;;6.00;1.80;;;;;;;13.65;79.61;97823.40;105679;1258;95374;-78
2023/10/28 11:01:25;;;;;;;3.30;1.50;;;;;;;13.69;79.33;97823.99;105202;1259;95233;-78
2023/10/28 11:03:57;;;;;;;2.90;1.50;;;;;;;13.70;79.13;97827.27;105475;1255;107791;-81
2023/10/28 11:06:25;;;;;;;3.90;2.50;;;;;;;13.72;79.12;97828.31;105848;1254;95267;-81
2023/10/28 11:08:53;;;;;;;3.80;2.10;;;;;;;13.76;79.29;97829.79;105217;1260;106343;-79
2023/10/28 11:11:30;;;;;;;5.50;2.40;;;;;;;13.82;79.03;97828.98;105385;1256;96068;-82
2023/10/28 11:14:00;;;;;;;2.70;1.80;;;;;;;13.90;79.01;97831.42;105829;1257;95270;-79
2023/10/28 11:16:30;;;;;;;16.30;6.50;;;;;;;13.94;78.65;97835.25;105532;1257;108454;-79
2023/10/28 11:19:02;;;;;;;6.00;3.00;;;;;;;13.96;78.51;97832.55;105380;1253;95346;-79
2023/10/28 11:21:31;;;;;;;11.80;3.60;;;;;;;13.99;78.84;97834.30;105394;1266;107198;-79
2023/10/28 11:24:04;;;;;;;6.80;3.20;;;;;;;14.04;78.51;97829.86;105163;1257;96506;-80
2023/10/28 11:26:34;;;;;;;4.40;2.90;;;;;;;14.11;78.49;97836.79;105120;1258;96148;-79
2023/10/28 11:29:04;;;;;;;9.20;2.50;;;;;;;14.17;78.24;97836.94;105146;1258;108655;-79